Time;durP1;ratioP1;P1;durP2;ratioP2;P2;SDS_P1;SDS_P2;PMS_P1;PMS_P2;Temp;Humidity;BMP_temperature;BMP_pressure;BME280_temperature;BME280_humidity;BME280_pressure;Samples;Min_cycle;Max_cycle;Signal;HPM_P1;HPM_P2
2023/06/20 00:00:34;;;;;;;3.67;2.60;;;26.30;46.10;;;;;;5038299;28;20132;-74
2023/06/20 00:03:00;;;;;;;3.65;2.78;;;26.30;46.10;;;;;;5055850;28;20374;-77
2023/06/20 00:05:26;;;;;;;3.10;2.33;;;26.30;46.10;;;;;;5021322;28;20037;-74
2023/06/20 00:07:54;;;;;;;3.42;2.40;;;26.30;46.10;;;;;;5054769;28;20065;-74
2023/06/20 00:10:20;;;;;;;3.28;2.35;;;26.20;46.00;;;;;;5054320;28;20116;-73
2023/06/20 00:12:46;;;;;;;3.17;2.40;;;26.20;46.00;;;;;;5037704;28;20048;-74
2023/06/20 00:15:12;;;;;;;3.05;2.25;;;26.20;46.00;;;;;;5038013;28;20033;-76
2023/06/20 00:17:38;;;;;;;3.50;2.50;;;26.20;46.10;;;;;;5055660;28;20032;-75
2023/06/20 00:20:08;;;;;;;3.03;2.38;;;26.20;46.10;;;;;;5054924;28;20021;-75
2023/06/20 00:22:35;;;;;;;3.92;2.78;;;26.10;46.10;;;;;;5054558;28;20037;-76
2023/06/20 00:25:03;;;;;;;3.67;2.67;;;26.10;46.10;;;;;;5054935;28;20021;-76
2023/06/20 00:27:28;;;;;;;3.90;2.60;;;26.10;46.10;;;;;;5037780;28;20120;-74
2023/06/20 00:29:54;;;;;;;2.90;2.45;;;26.10;46.10;;;;;;5054760;28;20059;-74
2023/06/20 00:32:20;;;;;;;3.88;2.50;;;26.10;46.10;;;;;;5053665;28;20037;-74
2023/06/20 00:34:46;;;;;;;3.80;2.72;;;26.00;46.00;;;;;;5037335;28;20056;-75
2023/06/20 00:37:13;;;;;;;3.63;2.40;;;26.00;46.10;;;;;;5037709;28;20029;-75
2023/06/20 00:39:38;;;;;;;3.80;2.65;;;26.00;46.10;;;;;;5037518;28;20132;-73
2023/06/20 00:42:19;;;;;;;4.10;2.85;;;26.00;46.20;;;;;;5054632;28;20029;-74
2023/06/20 00:44:46;;;;;;;3.67;2.60;;;25.90;46.10;;;;;;5037275;28;20124;-74
2023/06/20 00:47:16;;;;;;;3.75;2.60;;;25.90;46.10;;;;;;5053979;28;20036;-74
2023/06/20 00:49:44;;;;;;;3.33;2.45;;;25.90;46.20;;;;;;5054510;28;20123;-77
2023/06/20 00:52:10;;;;;;;3.08;2.25;;;25.90;46.20;;;;;;5053953;28;20473;-74
2023/06/20 00:54:36;;;;;;;3.60;2.60;;;25.90;46.20;;;;;;5053270;28;20082;-76
2023/06/20 00:57:02;;;;;;;3.72;2.70;;;25.80;46.20;;;;;;5053587;28;20378;-74
2023/06/20 00:59:27;;;;;;;3.72;2.70;;;25.80;46.20;;;;;;5053647;28;20033;-74
2023/06/20 01:01:53;;;;;;;3.88;2.85;;;25.80;46.20;;;;;;5054487;28;20033;-76
2023/06/20 01:04:20;;;;;;;3.70;2.65;;;25.80;46.20;;;;;;5054418;28;20044;-73
2023/06/20 01:07:09;;;;;;;4.22;2.80;;;25.80;46.30;;;;;;5036903;28;20090;-74
2023/06/20 01:09:44;;;;;;;3.67;2.47;;;25.70;46.30;;;;;;5054341;28;20115;-75
2023/06/20 01:12:25;;;;;;;3.67;2.65;;;25.70;46.30;;;;;;5037379;28;20047;-74
2023/06/20 01:15:06;;;;;;;3.55;2.42;;;25.70;46.30;;;;;;5053366;28;20485;-73
2023/06/20 01:17:43;;;;;;;3.47;2.60;;;25.70;46.30;;;;;;5036979;28;20036;-76
2023/06/20 01:20:17;;;;;;;3.85;2.55;;;25.70;46.30;;;;;;5036543;28;20025;-74
2023/06/20 01:22:58;;;;;;;3.53;2.40;;;25.70;46.30;;;;;;5053577;28;20029;-73
2023/06/20 01:25:48;;;;;;;4.20;2.75;;;25.70;46.40;;;;;;5053052;28;20167;-74
2023/06/20 01:28:26;;;;;;;3.88;2.70;;;25.60;46.30;;;;;;5053504;28;20556;-74
2023/06/20 01:31:10;;;;;;;3.78;2.65;;;25.60;46.30;;;;;;5054480;28;20029;-75
2023/06/20 01:33:49;;;;;;;3.55;2.50;;;25.60;46.40;;;;;;5053867;28;20110;-74
2023/06/20 01:36:19;;;;;;;3.30;2.58;;;25.60;46.40;;;;;;5053262;28;20025;-75
2023/06/20 01:38:48;;;;;;;3.92;2.50;;;25.60;46.40;;;;;;5052972;28;20033;-74
2023/06/20 01:41:19;;;;;;;3.33;2.45;;;25.50;46.30;;;;;;5036675;28;20029;-74
2023/06/20 01:43:48;;;;;;;5.03;3.03;;;25.50;46.40;;;;;;5053393;28;20060;-74
2023/06/20 01:46:16;;;;;;;3.45;2.60;;;25.50;46.40;;;;;;5054151;28;20044;-74
2023/06/20 01:48:43;;;;;;;4.28;2.72;;;25.50;46.40;;;;;;5036911;28;20374;-74
2023/06/20 01:51:10;;;;;;;3.33;2.58;;;25.50;46.40;;;;;;5036089;28;20025;-74
2023/06/20 01:53:38;;;;;;;3.40;2.47;;;25.50;46.50;;;;;;5052134;28;20119;-75
2023/06/20 01:56:06;;;;;;;3.58;2.63;;;25.50;46.50;;;;;;5052691;28;20095;-75
2023/06/20 01:58:36;;;;;;;3.92;2.90;;;25.50;46.50;;;;;;5036345;28;20037;-74
2023/06/20 02:01:03;;;;;;;3.75;2.58;;;25.50;46.50;;;;;;5052654;28;20033;-76
2023/06/20 02:03:30;;;;;;;3.75;2.55;;;25.40;46.50;;;;;;5052355;28;20119;-77
2023/06/20 02:05:58;;;;;;;4.25;2.95;;;25.40;46.50;;;;;;5052471;28;20089;-74
2023/06/20 02:08:26;;;;;;;3.63;2.67;;;25.40;46.50;;;;;;5051598;28;20029;-76
2023/06/20 02:10:52;;;;;;;4.07;2.70;;;25.40;46.50;;;;;;5019509;28;20370;-74
2023/06/20 02:13:22;;;;;;;3.80;2.78;;;25.40;46.50;;;;;;5053429;28;20064;-74
2023/06/20 02:15:52;;;;;;;3.65;2.40;;;25.40;46.60;;;;;;5052304;28;20021;-73
2023/06/20 02:18:22;;;;;;;3.53;2.60;;;25.40;46.60;;;;;;5019816;28;20029;-74
2023/06/20 02:20:54;;;;;;;4.75;3.20;;;25.40;46.60;;;;;;5035644;28;20091;-74
2023/06/20 02:23:28;;;;;;;3.38;2.60;;;25.30;46.60;;;;;;5053849;28;20044;-74
2023/06/20 02:26:00;;;;;;;4.70;2.80;;;25.40;46.70;;;;;;5052174;28;20036;-74
2023/06/20 02:28:28;;;;;;;3.78;2.50;;;25.30;46.60;;;;;;5052621;28;20359;-74
2023/06/20 02:30:55;;;;;;;4.25;2.80;;;25.30;46.60;;;;;;5052662;28;20029;-74
2023/06/20 02:33:23;;;;;;;3.97;2.67;;;25.30;46.60;;;;;;5035956;28;20029;-74
2023/06/20 02:35:50;;;;;;;4.43;2.95;;;25.30;46.60;;;;;;5051741;28;20036;-75
2023/06/20 02:38:16;;;;;;;3.78;2.97;;;25.20;46.60;;;;;;5051958;28;20467;-75
2023/06/20 02:40:42;;;;;;;3.15;2.38;;;25.30;46.70;;;;;;5052826;28;20044;-74
2023/06/20 02:43:08;;;;;;;4.53;3.05;;;25.20;46.60;;;;;;5051830;28;20087;-75
2023/06/20 02:45:35;;;;;;;3.45;2.55;;;25.20;46.60;;;;;;5035293;28;20033;-75
2023/06/20 02:48:24;;;;;;;3.78;2.67;;;25.20;46.70;;;;;;5051662;28;20025;-74
2023/06/20 02:51:07;;;;;;;3.92;2.75;;;25.20;46.70;;;;;;5051950;28;20029;-74
2023/06/20 02:53:39;;;;;;;4.30;3.13;;;25.20;46.80;;;;;;5051324;28;20052;-74
2023/06/20 02:56:10;;;;;;;2.90;2.35;;;25.20;47.40;;;;;;5051539;28;20029;-74
2023/06/20 02:58:40;;;;;;;3.20;2.40;;;25.10;46.70;;;;;;5052441;28;20115;-74
2023/06/20 03:01:08;;;;;;;4.05;2.80;;;25.10;46.80;;;;;;5035727;28;20430;-74
2023/06/20 03:03:39;;;;;;;4.22;2.95;;;25.10;46.80;;;;;;5034901;28;20064;-75
2023/06/20 03:06:07;;;;;;;4.57;2.92;;;25.10;46.80;;;;;;5035651;28;20434;-74
2023/06/20 03:08:38;;;;;;;3.63;2.75;;;25.10;46.80;;;;;;5051541;28;20025;-73
2023/06/20 03:11:04;;;;;;;3.40;2.63;;;25.10;46.80;;;;;;5051202;28;20037;-76
2023/06/20 03:13:29;;;;;;;4.25;3.08;;;25.10;46.80;;;;;;5035571;28;20041;-74
2023/06/20 03:15:55;;;;;;;4.20;2.97;;;25.10;46.90;;;;;;5051356;28;20029;-74
2023/06/20 03:18:21;;;;;;;4.60;3.30;;;25.10;46.90;;;;;;5035648;28;20025;-74
2023/06/20 03:20:48;;;;;;;3.80;2.80;;;25.00;46.80;;;;;;5053671;28;20060;-74
2023/06/20 03:23:15;;;;;;;4.32;3.22;;;25.10;47.00;;;;;;5055296;28;20143;-74
2023/06/20 03:25:42;;;;;;;4.28;3.08;;;25.00;46.90;;;;;;5056107;28;20061;-75
2023/06/20 03:28:08;;;;;;;4.35;2.90;;;25.00;46.90;;;;;;5022054;28;20060;-74
2023/06/20 03:30:34;;;;;;;4.50;3.15;;;25.00;46.90;;;;;;5055429;28;20040;-74
2023/06/20 03:33:01;;;;;;;4.05;3.08;;;25.00;46.90;;;;;;5055562;28;20033;-74
2023/06/20 03:35:26;;;;;;;4.45;3.25;;;25.00;46.90;;;;;;5038799;28;20072;-74
2023/06/20 03:37:53;;;;;;;4.70;3.10;;;25.00;47.00;;;;;;5038727;28;20053;-74
2023/06/20 03:40:19;;;;;;;4.45;3.25;;;25.00;47.00;;;;;;5021946;28;20021;-74
2023/06/20 03:42:46;;;;;;;4.05;3.17;;;25.00;47.10;;;;;;5039075;28;20041;-74
2023/06/20 03:45:12;;;;;;;4.40;2.78;;;24.90;47.10;;;;;;5038597;28;20028;-74
2023/06/20 03:47:39;;;;;;;4.25;3.42;;;24.90;47.10;;;;;;5038707;28;20036;-74
2023/06/20 03:50:05;;;;;;;4.55;2.83;;;24.90;47.10;;;;;;5054946;28;20495;-73
2023/06/20 03:52:32;;;;;;;4.25;3.20;;;24.90;47.10;;;;;;5054637;28;20037;-75
2023/06/20 03:54:58;;;;;;;4.25;3.17;;;24.90;47.10;;;;;;5054056;28;20159;-73
2023/06/20 03:57:23;;;;;;;4.32;3.17;;;24.90;47.10;;;;;;5039041;28;20037;-74
2023/06/20 03:59:49;;;;;;;4.97;3.40;;;24.90;47.20;;;;;;5054596;28;20470;-74
2023/06/20 04:02:15;;;;;;;4.47;3.47;;;24.90;47.20;;;;;;5037874;28;20128;-74
2023/06/20 04:04:41;;;;;;;4.10;3.10;;;24.90;47.30;;;;;;5037940;28;20033;-71
2023/06/20 04:07:10;;;;;;;4.38;3.38;;;24.80;47.20;;;;;;5054410;28;20401;-71
2023/06/20 04:09:36;;;;;;;4.13;3.10;;;24.80;47.30;;;;;;5054272;28;20043;-71
2023/06/20 04:12:02;;;;;;;4.30;3.13;;;24.80;47.30;;;;;;5056092;28;20534;-72
2023/06/20 04:14:28;;;;;;;4.35;3.20;;;24.80;47.30;;;;;;5054632;28;20039;-70
2023/06/20 04:16:56;;;;;;;3.83;2.97;;;24.80;47.30;;;;;;5038719;28;20350;-75
2023/06/20 04:19:22;;;;;;;5.22;3.20;;;24.80;47.30;;;;;;5054289;28;20021;-71
2023/06/20 04:21:49;;;;;;;5.05;3.47;;;24.80;47.30;;;;;;5053991;28;20033;-72
2023/06/20 04:24:15;;;;;;;4.18;3.30;;;24.80;47.30;;;;;;5054177;28;20037;-71
2023/06/20 04:26:41;;;;;;;3.92;2.78;;;24.80;47.40;;;;;;5054108;28;20029;-71
2023/06/20 04:29:07;;;;;;;4.47;3.47;;;24.80;47.40;;;;;;5054127;28;20423;-74
2023/06/20 04:31:35;;;;;;;3.80;3.03;;;24.80;47.40;;;;;;5037313;28;20037;-71
2023/06/20 04:34:01;;;;;;;3.90;3.08;;;24.70;47.40;;;;;;5053894;28;20029;-78
2023/06/20 04:36:30;;;;;;;5.03;3.38;;;24.70;48.00;;;;;;5053993;28;20470;-75
2023/06/20 04:38:58;;;;;;;3.83;2.88;;;24.70;47.40;;;;;;5054188;28;20458;-76
2023/06/20 04:41:24;;;;;;;4.43;3.50;;;24.70;47.40;;;;;;5037210;28;20037;-75
2023/06/20 04:43:51;;;;;;;3.80;3.00;;;24.70;47.40;;;;;;5053746;28;20025;-75
2023/06/20 04:46:17;;;;;;;4.47;3.22;;;24.70;47.50;;;;;;5054402;28;20468;-75
2023/06/20 04:48:44;;;;;;;4.22;3.17;;;24.70;47.50;;;;;;5054315;28;20033;-76
2023/06/20 04:51:10;;;;;;;4.78;3.28;;;24.70;47.50;;;;;;5037078;28;20059;-74
2023/06/20 04:53:36;;;;;;;4.63;3.42;;;24.70;47.60;;;;;;5052859;28;20048;-75
2023/06/20 04:56:03;;;;;;;3.80;3.03;;;24.70;47.60;;;;;;5053985;28;20355;-77
2023/06/20 04:58:28;;;;;;;5.25;3.50;;;24.70;47.60;;;;;;5053796;28;20064;-75
2023/06/20 05:00:56;;;;;;;4.32;3.20;;;24.70;47.60;;;;;;5037467;28;20060;-73
2023/06/20 05:03:22;;;;;;;4.32;3.40;;;24.70;47.70;;;;;;5054467;28;20488;-74
2023/06/20 05:05:48;;;;;;;4.60;3.33;;;24.60;47.60;;;;;;5053432;28;20472;-76
2023/06/20 05:08:14;;;;;;;4.90;3.53;;;24.60;47.70;;;;;;5053667;28;20065;-75
2023/06/20 05:10:40;;;;;;;4.82;3.85;;;24.60;47.70;;;;;;5020323;28;20378;-75
2023/06/20 05:13:05;;;;;;;4.05;3.22;;;24.60;47.70;;;;;;5054698;28;20041;-74
2023/06/20 05:15:31;;;;;;;4.43;3.45;;;24.60;47.70;;;;;;5053389;28;20040;-77
2023/06/20 05:17:57;;;;;;;5.05;3.53;;;24.60;47.70;;;;;;5054021;28;20033;-73
2023/06/20 05:20:22;;;;;;;4.40;3.47;;;24.60;47.70;;;;;;5053031;28;20064;-73
2023/06/20 05:22:48;;;;;;;4.68;3.05;;;24.60;47.70;;;;;;5054211;28;20116;-75
2023/06/20 05:25:14;;;;;;;4.03;3.20;;;24.60;47.70;;;;;;5037139;28;20156;-74
2023/06/20 05:27:40;;;;;;;4.63;3.45;;;24.60;47.70;;;;;;5054712;28;20485;-74
2023/06/20 05:30:08;;;;;;;4.68;3.40;;;24.60;47.80;;;;;;5053019;28;20035;-75
2023/06/20 05:32:34;;;;;;;4.30;3.40;;;24.60;47.80;;;;;;5053154;28;20043;-74
2023/06/20 05:35:00;;;;;;;4.53;3.38;;;24.60;47.80;;;;;;5052979;28;20479;-78
2023/06/20 05:37:28;;;;;;;4.32;3.45;;;24.60;47.80;;;;;;5086107;28;20036;-75
2023/06/20 05:39:55;;;;;;;4.50;3.40;;;24.60;47.80;;;;;;5052391;28;20040;-74
2023/06/20 05:42:20;;;;;;;4.47;3.38;;;24.60;47.90;;;;;;5052571;28;20434;-74
2023/06/20 05:44:46;;;;;;;4.95;3.75;;;24.60;47.90;;;;;;5035892;28;20186;-73
2023/06/20 05:47:17;;;;;;;4.18;3.42;;;24.60;47.90;;;;;;5054178;28;20074;-74
2023/06/20 05:49:47;;;;;;;4.55;3.35;;;24.60;48.00;;;;;;5053882;28;20025;-73
2023/06/20 05:52:16;;;;;;;3.83;3.20;;;24.60;48.10;;;;;;5052398;28;20036;-74
2023/06/20 05:54:45;;;;;;;4.00;3.33;;;24.60;48.00;;;;;;5035643;28;20072;-73
2023/06/20 05:57:11;;;;;;;5.80;3.67;;;24.60;48.10;;;;;;5052765;28;20126;-74
2023/06/20 05:59:37;;;;;;;5.13;3.63;;;24.60;48.10;;;;;;5035818;28;20404;-73
2023/06/20 06:02:05;;;;;;;4.45;3.45;;;24.60;48.10;;;;;;5053715;28;20136;-74
2023/06/20 06:04:31;;;;;;;4.07;3.53;;;24.60;48.20;;;;;;5053577;28;20033;-73
2023/06/20 06:06:57;;;;;;;4.50;3.25;;;24.60;48.20;;;;;;5052052;28;20107;-73
2023/06/20 06:09:23;;;;;;;4.53;3.45;;;24.60;48.20;;;;;;5052397;28;20067;-73
2023/06/20 06:11:49;;;;;;;5.15;3.67;;;24.60;48.30;;;;;;5052277;28;20094;-74
2023/06/20 06:14:14;;;;;;;4.93;3.92;;;24.60;48.30;;;;;;5036180;28;20478;-73
2023/06/20 06:16:40;;;;;;;4.72;3.70;;;24.70;48.40;;;;;;5036651;28;20428;-73
2023/06/20 06:19:06;;;;;;;4.85;3.67;;;24.60;48.30;;;;;;5019010;28;20040;-73
2023/06/20 06:21:32;;;;;;;4.95;3.72;;;24.60;48.40;;;;;;5051937;28;20071;-73
2023/06/20 06:23:57;;;;;;;4.63;3.60;;;24.70;48.50;;;;;;5053353;28;20033;-73
2023/06/20 06:26:23;;;;;;;4.93;3.80;;;24.70;48.60;;;;;;5052206;28;20039;-73
2023/06/20 06:28:49;;;;;;;5.70;4.18;;;24.70;48.60;;;;;;5051718;28;20424;-73
2023/06/20 06:31:21;;;;;;;5.05;3.90;;;24.70;48.60;;;;;;5053425;28;20045;-73
2023/06/20 06:33:47;;;;;;;5.30;4.25;;;24.70;48.70;;;;;;5052026;28;20386;-74
2023/06/20 06:36:16;;;;;;;5.78;4.05;;;24.70;48.70;;;;;;5035312;28;20029;-73
2023/06/20 06:38:48;;;;;;;6.22;3.83;;;24.70;48.80;;;;;;5035236;28;20523;-74
2023/06/20 06:41:16;;;;;;;5.20;3.95;;;24.70;48.90;;;;;;5053773;28;20029;-73
2023/06/20 06:43:41;;;;;;;4.85;3.67;;;24.70;48.90;;;;;;5052756;28;20041;-74
2023/06/20 06:46:07;;;;;;;5.20;4.43;;;24.70;48.90;;;;;;5035184;28;20029;-73
2023/06/20 06:48:33;;;;;;;6.55;4.40;;;24.80;48.90;;;;;;5052982;28;20098;-73
2023/06/20 06:50:59;;;;;;;5.03;3.92;;;24.80;48.90;;;;;;5051769;28;20087;-73
2023/06/20 06:53:25;;;;;;;5.72;3.97;;;24.80;48.90;;;;;;5051722;28;20087;-73
2023/06/20 06:55:51;;;;;;;5.28;4.25;;;24.80;48.90;;;;;;5058914;28;20048;-73
2023/06/20 06:58:16;;;;;;;4.85;3.70;;;24.80;49.00;;;;;;5058620;28;20112;-73
2023/06/20 07:00:42;;;;;;;5.30;4.05;;;24.80;49.60;;;;;;5041637;28;20028;-73
2023/06/20 07:03:08;;;;;;;4.85;3.92;;;24.90;49.00;;;;;;5059301;28;20505;-73
2023/06/20 07:05:34;;;;;;;5.22;4.20;;;24.90;49.00;;;;;;5059493;28;20041;-73
2023/06/20 07:08:00;;;;;;;4.93;4.28;;;24.90;49.00;;;;;;5059471;28;20044;-74
2023/06/20 07:10:25;;;;;;;5.32;4.00;;;24.90;48.90;;;;;;5059893;28;20024;-74
2023/06/20 07:12:51;;;;;;;4.65;3.78;;;24.90;48.90;;;;;;5059018;28;20037;-73
2023/06/20 07:15:17;;;;;;;5.30;4.00;;;25.00;49.00;;;;;;5057914;28;20068;-73
2023/06/20 07:17:43;;;;;;;4.88;3.80;;;25.00;49.00;;;;;;5059081;28;20055;-74
2023/06/20 07:20:09;;;;;;;5.15;4.00;;;25.00;48.90;;;;;;5058057;28;20033;-73
2023/06/20 07:22:35;;;;;;;5.05;3.90;;;25.10;49.00;;;;;;5059056;28;20041;-73
2023/06/20 07:25:01;;;;;;;5.53;3.95;;;25.10;48.90;;;;;;5058068;28;20112;-75
2023/06/20 07:27:27;;;;;;;4.45;3.67;;;25.10;48.90;;;;;;5059135;28;20048;-73
2023/06/20 07:29:53;;;;;;;4.97;3.78;;;25.20;49.00;;;;;;5041604;28;20029;-73
2023/06/20 07:32:19;;;;;;;4.93;3.88;;;25.20;48.90;;;;;;5042029;28;20406;-73
2023/06/20 07:34:44;;;;;;;4.95;4.00;;;25.20;48.90;;;;;;5057861;28;20052;-74
2023/06/20 07:37:10;;;;;;;4.65;3.53;;;25.30;48.90;;;;;;5057710;28;20520;-73
2023/06/20 07:39:40;;;;;;;4.85;3.67;;;25.30;49.00;;;;;;5059198;28;20112;-73
2023/06/20 07:42:06;;;;;;;4.93;3.90;;;25.40;49.10;;;;;;5059684;28;20037;-74
2023/06/20 07:44:32;;;;;;;4.13;3.60;;;25.40;49.00;;;;;;5058234;28;20025;-75
2023/06/20 07:46:58;;;;;;;4.65;3.83;;;25.40;49.00;;;;;;5057867;28;20036;-75
2023/06/20 07:49:23;;;;;;;4.85;3.78;;;25.50;49.00;;;;;;5059347;28;20466;-74
2023/06/20 07:51:49;;;;;;;4.97;3.97;;;25.50;49.00;;;;;;5041217;28;20380;-74
2023/06/20 07:54:15;;;;;;;4.80;3.83;;;25.60;49.00;;;;;;5057355;28;20059;-74
2023/06/20 07:56:41;;;;;;;4.82;3.88;;;25.60;49.00;;;;;;5057598;28;20486;-74
2023/06/20 07:59:06;;;;;;;4.75;3.90;;;25.70;49.00;;;;;;5057847;28;20041;-74
2023/06/20 08:01:32;;;;;;;4.90;4.00;;;25.70;49.00;;;;;;5058771;28;20029;-74
2023/06/20 08:03:58;;;;;;;4.63;3.60;;;25.70;48.90;;;;;;5041139;28;20063;-74
2023/06/20 08:06:24;;;;;;;5.18;3.85;;;25.80;49.00;;;;;;5054901;28;20033;-74
2023/06/20 08:08:50;;;;;;;5.18;4.07;;;25.90;49.00;;;;;;5055313;28;20029;-75
2023/06/20 08:11:21;;;;;;;4.95;3.60;;;25.90;49.00;;;;;;5038247;28;20468;-73
2023/06/20 08:13:46;;;;;;;5.40;3.90;;;26.00;49.70;;;;;;5054441;28;20086;-74
2023/06/20 08:16:13;;;;;;;5.18;3.78;;;26.00;48.90;;;;;;5037795;28;20127;-74
2023/06/20 08:18:38;;;;;;;4.90;3.58;;;26.10;49.00;;;;;;5037795;28;20033;-74
2023/06/20 08:21:04;;;;;;;4.50;3.40;;;26.10;49.00;;;;;;5055042;28;20037;-75
2023/06/20 08:23:30;;;;;;;4.95;3.92;;;26.20;49.00;;;;;;5054687;28;20484;-74
2023/06/20 08:25:56;;;;;;;4.93;3.78;;;26.20;48.90;;;;;;5037773;28;20061;-74
2023/06/20 08:28:22;;;;;;;4.50;3.30;;;26.30;48.90;;;;;;5054834;28;20060;-74
2023/06/20 08:30:48;;;;;;;4.22;3.15;;;26.40;49.00;;;;;;5037650;28;20025;-74
2023/06/20 08:33:14;;;;;;;5.10;3.90;;;26.50;49.00;;;;;;5054978;28;20051;-75
2023/06/20 08:35:39;;;;;;;4.50;3.30;;;26.50;48.90;;;;;;5038154;28;20052;-75
2023/06/20 08:38:05;;;;;;;4.60;3.65;;;26.60;48.90;;;;;;5053967;28;20558;-74
2023/06/20 08:40:31;;;;;;;4.03;3.30;;;26.70;48.90;;;;;;5055528;28;20044;-74
2023/06/20 08:42:58;;;;;;;4.22;3.47;;;26.70;48.70;;;;;;5054914;28;20036;-75
2023/06/20 08:45:23;;;;;;;4.10;3.33;;;26.80;48.80;;;;;;5053870;28;20449;-74
2023/06/20 08:47:49;;;;;;;3.92;3.25;;;26.90;48.80;;;;;;5054168;28;20496;-74
2023/06/20 08:50:15;;;;;;;3.78;3.25;;;27.00;48.90;;;;;;5054165;28;20227;-74
2023/06/20 08:52:49;;;;;;;4.85;3.38;;;27.00;48.80;;;;;;5054678;28;20406;-75
2023/06/20 08:55:16;;;;;;;4.05;3.20;;;27.10;48.80;;;;;;5053810;28;20051;-74
2023/06/20 08:57:45;;;;;;;3.70;2.97;;;27.20;48.80;;;;;;5055113;28;20037;-75
2023/06/20 09:00:22;;;;;;;4.10;2.85;;;27.30;48.80;;;;;;5049201;28;20052;-76
2023/06/20 09:02:52;;;;;;;4.07;3.30;;;27.40;48.80;;;;;;5055856;28;20090;-74
2023/06/20 09:05:19;;;;;;;4.10;3.20;;;27.40;48.70;;;;;;5055673;28;20456;-74
2023/06/20 09:07:45;;;;;;;3.70;2.90;;;27.50;48.80;;;;;;5054787;28;20017;-74
2023/06/20 09:10:15;;;;;;;3.63;2.78;;;27.60;48.80;;;;;;5036921;28;20032;-74
2023/06/20 09:12:48;;;;;;;3.17;2.55;;;27.70;48.80;;;;;;5054278;28;20037;-75
2023/06/20 09:15:25;;;;;;;3.67;2.80;;;27.80;48.90;;;;;;5053240;28;20029;-73
2023/06/20 09:17:51;;;;;;;3.67;2.83;;;27.90;48.90;;;;;;5053934;28;20063;-73
2023/06/20 09:20:17;;;;;;;3.55;2.88;;;27.90;48.60;;;;;;5037289;28;20032;-75
2023/06/20 09:22:44;;;;;;;3.22;2.53;;;28.10;48.60;;;;;;5036583;28;20124;-75
2023/06/20 09:25:10;;;;;;;2.95;2.67;;;28.10;48.60;;;;;;5053091;28;20095;-74
2023/06/20 09:27:41;;;;;;;4.05;2.88;;;28.20;48.60;;;;;;5053360;28;20040;-74
2023/06/20 09:30:07;;;;;;;3.65;2.40;;;28.30;48.60;;;;;;5053070;28;20037;-74
2023/06/20 09:32:35;;;;;;;4.07;3.15;;;28.40;48.50;;;;;;5053945;28;20094;-75
2023/06/20 09:35:03;;;;;;;3.03;2.38;;;28.50;48.50;;;;;;5036266;28;20028;-74
2023/06/20 09:37:55;;;;;;;4.90;2.97;;;28.50;48.40;;;;;;5052823;28;20025;-74
2023/06/20 09:40:21;;;;;;;3.10;2.60;;;28.60;48.40;;;;;;5055143;28;20041;-74
2023/06/20 09:42:47;;;;;;;3.45;2.90;;;28.70;48.30;;;;;;5054786;28;20041;-74
2023/06/20 09:45:17;;;;;;;3.40;2.75;;;28.70;48.30;;;;;;5036015;28;20431;-74
2023/06/20 09:47:44;;;;;;;4.40;2.75;;;28.80;48.40;;;;;;5019671;28;20033;-74
2023/06/20 09:50:16;;;;;;;4.53;3.08;;;28.90;48.30;;;;;;5053640;28;20385;-74
2023/06/20 09:52:51;;;;;;;3.55;2.72;;;29.00;48.30;;;;;;5052774;28;20041;-74
2023/06/20 09:55:19;;;;;;;3.85;2.70;;;29.10;48.30;;;;;;5052246;28;20140;-74
2023/06/20 09:57:53;;;;;;;3.53;2.63;;;29.10;48.10;;;;;;5054006;28;20033;-74
2023/06/20 10:00:20;;;;;;;2.60;2.25;;;29.20;48.00;;;;;;5053303;28;20039;-74
2023/06/20 10:02:49;;;;;;;3.22;2.63;;;29.20;47.90;;;;;;5052317;28;20477;-74
2023/06/20 10:05:17;;;;;;;3.22;2.58;;;29.30;47.90;;;;;;5053220;28;20030;-76
2023/06/20 10:07:45;;;;;;;3.22;2.55;;;29.30;47.90;;;;;;5052281;28;20114;-74
2023/06/20 10:10:12;;;;;;;3.35;2.72;;;29.40;47.90;;;;;;5052599;28;20024;-74
2023/06/20 10:12:43;;;;;;;3.20;2.50;;;29.50;47.90;;;;;;5053436;28;20044;-75
2023/06/20 10:15:10;;;;;;;2.95;2.45;;;29.60;47.90;;;;;;5053402;28;20037;-75
2023/06/20 10:17:41;;;;;;;2.85;2.45;;;29.70;47.80;;;;;;5036019;28;20433;-74
2023/06/20 10:20:22;;;;;;;3.22;2.47;;;29.70;47.80;;;;;;5053826;28;20420;-74
2023/06/20 10:22:49;;;;;;;2.90;2.60;;;29.80;47.70;;;;;;5053928;28;20116;-75
2023/06/20 10:25:17;;;;;;;2.70;2.40;;;29.80;47.60;;;;;;5052847;28;20033;-75
2023/06/20 10:27:54;;;;;;;2.90;2.33;;;29.90;47.70;;;;;;5052750;28;20040;-74
2023/06/20 10:30:55;;;;;;;3.33;2.50;;;29.90;47.60;;;;;;5052585;28;20025;-74
2023/06/20 10:33:37;;;;;;;3.22;2.30;;;30.00;47.70;;;;;;5051436;28;20044;-75
2023/06/20 10:36:04;;;;;;;3.28;2.47;;;30.10;47.60;;;;;;5051831;28;20082;-75
2023/06/20 10:38:32;;;;;;;3.33;2.65;;;30.10;47.50;;;;;;5051776;28;20377;-74
2023/06/20 10:41:26;;;;;;;2.78;2.47;;;30.20;47.60;;;;;;5035501;28;20393;-75
2023/06/20 10:44:01;;;;;;;3.25;2.60;;;30.20;47.60;;;;;;5036036;28;20474;-74
2023/06/20 10:46:36;;;;;;;3.28;2.38;;;30.30;47.50;;;;;;5051886;28;20123;-73
2023/06/20 10:49:08;;;;;;;3.15;2.40;;;30.30;47.40;;;;;;5051743;28;20116;-76
2023/06/20 10:51:47;;;;;;;2.85;2.30;;;30.40;47.40;;;;;;5051617;28;20025;-76
2023/06/20 10:54:14;;;;;;;2.55;2.33;;;30.40;47.40;;;;;;5051973;28;20055;-74
2023/06/20 10:56:40;;;;;;;3.25;2.55;;;30.50;47.30;;;;;;5051709;28;20025;-74
2023/06/20 10:59:19;;;;;;;2.60;2.13;;;30.60;47.40;;;;;;5051403;28;20078;-74
2023/06/20 11:01:45;;;;;;;2.88;2.22;;;30.60;47.40;;;;;;5035098;28;20403;-74
2023/06/20 11:04:13;;;;;;;2.95;2.38;;;30.70;47.40;;;;;;5052811;28;20029;-76
2023/06/20 11:06:39;;;;;;;2.88;2.25;;;30.70;47.40;;;;;;5053595;28;20029;-76
2023/06/20 11:09:14;;;;;;;2.38;1.98;;;30.80;47.40;;;;;;5051641;28;20484;-75
2023/06/20 11:11:40;;;;;;;2.30;1.98;;;30.80;47.40;;;;;;5053028;28;20458;-75
2023/06/20 11:14:18;;;;;;;2.13;1.88;;;30.90;47.40;;;;;;5052538;28;20045;-76
2023/06/20 11:16:46;;;;;;;3.10;2.17;;;30.90;47.50;;;;;;5035131;28;20025;-76
2023/06/20 11:19:13;;;;;;;2.08;1.83;;;30.90;47.40;;;;;;5052125;28;20025;-75
2023/06/20 11:21:39;;;;;;;2.30;1.77;;;31.00;47.50;;;;;;5051378;28;20033;-75
2023/06/20 11:24:05;;;;;;;2.53;2.00;;;31.00;47.50;;;;;;5051459;28;20039;-75
2023/06/20 11:26:32;;;;;;;2.67;2.20;;;31.00;47.40;;;;;;5051173;28;20060;-75
2023/06/20 11:29:01;;;;;;;2.35;2.15;;;31.00;47.50;;;;;;5051637;28;20087;-74
2023/06/20 11:31:27;;;;;;;2.10;1.90;;;31.10;47.50;;;;;;5052342;28;20422;-74
2023/06/20 11:34:07;;;;;;;2.47;2.00;;;31.10;47.50;;;;;;5053010;28;20072;-75
2023/06/20 11:36:33;;;;;;;2.35;2.00;;;31.20;47.60;;;;;;5051569;28;20470;-74
2023/06/20 11:39:11;;;;;;;2.45;1.85;;;31.20;47.60;;;;;;5051577;28;20033;-76
2023/06/20 11:41:37;;;;;;;2.00;1.77;;;31.20;47.80;;;;;;5054905;28;20040;-75
2023/06/20 11:44:04;;;;;;;2.20;2.00;;;31.20;47.70;;;;;;5054893;28;20029;-75
2023/06/20 11:46:30;;;;;;;2.13;1.88;;;31.30;47.80;;;;;;5055083;28;20112;-75
2023/06/20 11:48:56;;;;;;;2.47;1.95;;;31.30;47.80;;;;;;5054736;28;20033;-74
2023/06/20 11:51:24;;;;;;;2.55;2.03;;;31.30;47.80;;;;;;5054781;28;20367;-74
2023/06/20 11:54:05;;;;;;;2.65;2.00;;;31.30;47.80;;;;;;5055912;28;20095;-73
2023/06/20 11:56:31;;;;;;;2.15;1.65;;;31.30;47.80;;;;;;5055767;28;20374;-74
2023/06/20 11:58:58;;;;;;;1.98;1.75;;;31.30;47.80;;;;;;5054857;28;20033;-73
2023/06/20 12:01:25;;;;;;;2.47;1.80;;;31.40;47.90;;;;;;5054282;28;20037;-74
2023/06/20 12:04:09;;;;;;;2.28;1.75;;;31.30;47.80;;;;;;5056113;28;20037;-74
2023/06/20 12:06:37;;;;;;;2.10;1.88;;;31.40;47.90;;;;;;5055597;28;20025;-74
2023/06/20 12:09:03;;;;;;;2.58;1.90;;;31.40;47.90;;;;;;5056416;28;20028;-74
2023/06/20 12:11:29;;;;;;;2.05;1.80;;;31.40;47.90;;;;;;5037528;28;20090;-74
2023/06/20 12:13:55;;;;;;;1.90;1.70;;;31.40;47.80;;;;;;5020998;28;20040;-75
2023/06/20 12:16:22;;;;;;;1.90;1.70;;;31.40;47.80;;;;;;5054377;28;20032;-74
2023/06/20 12:18:49;;;;;;;2.83;1.83;;;31.50;47.90;;;;;;5055829;28;20033;-74
2023/06/20 12:21:15;;;;;;;2.20;1.58;;;31.40;47.80;;;;;;5055631;28;20039;-75
2023/06/20 12:23:40;;;;;;;2.17;1.90;;;31.50;47.90;;;;;;5056099;28;20136;-74
2023/06/20 12:26:07;;;;;;;1.65;1.50;;;31.50;47.80;;;;;;5056102;28;20124;-75
2023/06/20 12:28:33;;;;;;;1.70;1.50;;;31.50;47.80;;;;;;5037776;28;20065;-74
2023/06/20 12:30:59;;;;;;;2.03;1.80;;;31.50;47.80;;;;;;5054839;28;20374;-73
2023/06/20 12:33:25;;;;;;;2.30;1.88;;;31.50;47.80;;;;;;5055511;28;20037;-74
2023/06/20 12:35:52;;;;;;;1.67;1.55;;;31.50;47.70;;;;;;5054408;28;20033;-76
2023/06/20 12:38:18;;;;;;;2.05;1.70;;;31.50;47.70;;;;;;5055020;28;20120;-73
2023/06/20 12:40:44;;;;;;;2.00;1.80;;;31.50;47.70;;;;;;5054895;28;20043;-74
2023/06/20 12:43:10;;;;;;;2.50;2.03;;;31.50;47.70;;;;;;5055132;28;20029;-73
2023/06/20 12:45:36;;;;;;;2.13;1.65;;;31.50;47.70;;;;;;5054900;28;20082;-74
2023/06/20 12:48:03;;;;;;;2.00;1.80;;;31.50;47.70;;;;;;5054073;28;20112;-74
2023/06/20 12:50:28;;;;;;;1.70;1.60;;;31.50;47.70;;;;;;5053591;28;20029;-74
2023/06/20 12:52:54;;;;;;;1.85;1.63;;;31.50;47.70;;;;;;5054529;28;20032;-74